George S. — A8TJ9 — position and weather

sailwx.info

Track history (hours):
 
Tides and Currents Weather Stations Pressure Air Temp Water Temp Dewpoint Dewpoint Depression Visibility Wind Speed Wind Dir Waves Ship Positions

George S.

Last reported at 2017-Mar-24 05:33 UTC. Time now 2017-Mar-24 06:16 UTC.
Position N 44°23' E 037°34'.

Length 274 m; draft 9.3 m.

Type: Tanker. MMSI: 636014372.

Date/timePositionNaut miles runAvg speedWind from/ knotsBaromVisibWave heightAir tempDewpointWater temp
2017-Mar-24 05:33N 44°23' E 037°34'1 1.0
2017-Mar-24 04:33N 44°23' E 037°35'1 1.1
2017-Mar-24 03:33N 44°22' E 037°37'2 1.3
2017-Mar-24 02:20N 44°22' E 037°39'1 1.2
2017-Mar-24 01:33N 44°21' E 037°40'4 1.5
2017-Mar-23 23:06N 44°20' E 037°45'10967.7
2017-Mar-23 21:30N 43°26' E 039°56'106112.8
2017-Mar-23 20:34N 44°20' E 037°50'106105.7
2017-Mar-23 19:34N 43°26' E 039°56'106104.7
2017-Mar-23 18:33N 44°23' E 037°51'1 1.2
2017-Mar-23 17:33N 44°22' E 037°52'2 1.7
2017-Mar-23 16:33N 44°21' E 037°53'1111.1
2017-Mar-23 15:34N 44°14' E 037°41'4 1.4
2017-Mar-23 12:33N 44°13' E 037°35'1 0.8
2017-Mar-23 11:33N 44°13' E 037°36'0 0.4
2017-Mar-23 10:33N 44°13' E 037°36'2 2.1
2017-Mar-23 09:33N 44°14' E 037°38'1 0.9
2017-Mar-23 08:33N 44°15' E 037°39'1 0.8
2017-Mar-23 07:34N 44°15' E 037°40'1 0.7
2017-Mar-23 06:32N 44°16' E 037°41'1 0.5
2017-Mar-23 05:33N 44°16' E 037°41'1 0.6
2017-Mar-23 04:33N 44°16' E 037°42'1 0.7
2017-Mar-23 03:33N 44°17' E 037°43'1 0.8
2017-Mar-23 02:33N 44°17' E 037°44'1 0.8
2017-Mar-23 01:33N 44°18' E 037°44'1 0.7
2017-Mar-23 00:33N 44°18' E 037°45'1 0.7
2017-Mar-22 23:32N 44°19' E 037°46'1 1.1
2017-Mar-22 22:34N 44°19' E 037°47'10 9.6
2017-Mar-22 21:34N 44°23' E 037°35'1211.2
2017-Mar-22 20:31N 44°21' E 037°20'  
2017-Mar-19 10:11N 40°01' E 026°09'  
2017-Mar-14 16:23N 39°46' E 024°19'1315.9
2017-Mar-14 15:33N 39°47' E 024°02'  
Track history (hours):
 
Tides and Currents Weather Stations Pressure Air Temp Water Temp Dewpoint Dewpoint Depression Visibility Wind Speed Wind Dir Waves Ship Positions

George S.

Last reported at 2017-Mar-24 05:33 UTC. Time now 2017-Mar-24 06:16 UTC.
Position N 44°23' E 037°34'.

Length 274 m; draft 9.3 m.

Type: Tanker. MMSI: 636014372.

Date/timePositionNaut miles runAvg speedWind from/ knotsBaromVisibWave heightAir tempDewpointWater temp
2017-Mar-24 05:33N 44°23' E 037°34'1 1.0
2017-Mar-24 04:33N 44°23' E 037°35'1 1.1
2017-Mar-24 03:33N 44°22' E 037°37'2 1.3
2017-Mar-24 02:20N 44°22' E 037°39'1 1.2
2017-Mar-24 01:33N 44°21' E 037°40'4 1.5
2017-Mar-23 23:06N 44°20' E 037°45'10967.7
2017-Mar-23 21:30N 43°26' E 039°56'106112.8
2017-Mar-23 20:34N 44°20' E 037°50'106105.7
2017-Mar-23 19:34N 43°26' E 039°56'106104.7
2017-Mar-23 18:33N 44°23' E 037°51'1 1.2
2017-Mar-23 17:33N 44°22' E 037°52'2 1.7
2017-Mar-23 16:33N 44°21' E 037°53'1111.1
2017-Mar-23 15:34N 44°14' E 037°41'4 1.4
2017-Mar-23 12:33N 44°13' E 037°35'1 0.8
2017-Mar-23 11:33N 44°13' E 037°36'0 0.4
2017-Mar-23 10:33N 44°13' E 037°36'2 2.1
2017-Mar-23 09:33N 44°14' E 037°38'1 0.9
2017-Mar-23 08:33N 44°15' E 037°39'1 0.8
2017-Mar-23 07:34N 44°15' E 037°40'1 0.7
2017-Mar-23 06:32N 44°16' E 037°41'1 0.5
2017-Mar-23 05:33N 44°16' E 037°41'1 0.6
2017-Mar-23 04:33N 44°16' E 037°42'1 0.7
2017-Mar-23 03:33N 44°17' E 037°43'1 0.8
2017-Mar-23 02:33N 44°17' E 037°44'1 0.8
2017-Mar-23 01:33N 44°18' E 037°44'1 0.7
2017-Mar-23 00:33N 44°18' E 037°45'1 0.7
2017-Mar-22 23:32N 44°19' E 037°46'1 1.1
2017-Mar-22 22:34N 44°19' E 037°47'10 9.6
2017-Mar-22 21:34N 44°23' E 037°35'1211.2
2017-Mar-22 20:31N 44°21' E 037°20'  
2017-Mar-19 10:11N 40°01' E 026°09'  
2017-Mar-14 16:23N 39°46' E 024°19'1315.9
2017-Mar-14 15:33N 39°47' E 024°02'  

Dump ship's entire track history